Time;durP1;ratioP1;P1;durP2;ratioP2;P2;SDS_P1;SDS_P2;PMS_P1;PMS_P2;Temp;Humidity;BMP_temperature;BMP_pressure;BME280_temperature;BME280_humidity;BME280_pressure;Samples;Min_cycle;Max_cycle;Signal;HPM_P1;HPM_P2
2022/09/11 00:00:38;;;;;;;11.07;5.50;;;18.60;99.90;;;;;;5032786;28;20471;-68
2022/09/11 00:03:04;;;;;;;8.80;5.53;;;18.60;99.90;;;;;;5031888;28;20108;-65
2022/09/11 00:05:30;;;;;;;7.95;5.30;;;18.60;99.90;;;;;;5031907;28;20048;-66
2022/09/11 00:07:56;;;;;;;8.85;6.28;;;18.50;99.90;;;;;;5033374;28;20053;-67
2022/09/11 00:10:26;;;;;;;11.48;5.45;;;18.50;99.90;;;;;;5032902;28;20472;-68
2022/09/11 00:12:52;;;;;;;10.45;5.53;;;18.50;99.90;;;;;;5043259;28;20044;-68
2022/09/11 00:15:17;;;;;;;10.43;5.07;;;18.40;99.90;;;;;;5035160;28;20017;-67
2022/09/11 00:17:43;;;;;;;9.35;6.05;;;18.30;99.90;;;;;;5032584;28;20045;-68
2022/09/11 00:20:09;;;;;;;10.98;5.15;;;18.40;99.90;;;;;;5032350;28;20059;-67
2022/09/11 00:22:35;;;;;;;7.13;4.97;;;18.50;99.90;;;;;;5032253;28;20033;-66
2022/09/11 00:25:00;;;;;;;13.88;5.90;;;18.50;99.90;;;;;;5045347;28;20017;-68
2022/09/11 00:27:26;;;;;;;10.65;5.15;;;18.40;99.90;;;;;;5033529;28;20041;-67
2022/09/11 00:29:53;;;;;;;12.50;6.53;;;18.50;99.90;;;;;;5033872;28;20476;-68
2022/09/11 00:32:19;;;;;;;11.55;6.13;;;18.50;99.90;;;;;;5031174;28;20026;-68
2022/09/11 00:34:45;;;;;;;10.13;5.57;;;18.40;99.90;;;;;;5032486;28;20025;-68
2022/09/11 00:37:12;;;;;;;9.68;5.70;;;18.40;99.90;;;;;;5048083;28;20046;-65
2022/09/11 00:39:38;;;;;;;11.40;6.38;;;18.40;99.90;;;;;;5039498;28;20040;-67
2022/09/11 00:42:04;;;;;;;13.38;6.88;;;18.50;99.90;;;;;;5063333;28;20037;-67
2022/09/11 00:44:29;;;;;;;11.25;6.95;;;18.40;99.90;;;;;;5030468;28;20097;-64
2022/09/11 00:47:08;;;;;;;11.40;6.30;;;18.30;99.90;;;;;;5032838;28;20112;-67
2022/09/11 00:49:50;;;;;;;11.73;6.60;;;18.40;99.90;;;;;;5034256;28;20120;-66
2022/09/11 00:52:26;;;;;;;9.63;5.90;;;18.30;99.90;;;;;;5034953;28;20036;-67
2022/09/11 00:55:02;;;;;;;12.05;6.05;;;18.40;99.90;;;;;;5040834;28;20024;-68
2022/09/11 00:57:33;;;;;;;12.45;6.90;;;18.30;99.90;;;;;;5043748;28;20029;-68
2022/09/11 01:00:01;;;;;;;12.30;6.03;;;18.30;99.90;;;;;;5030983;28;20038;-66
2022/09/11 01:02:30;;;;;;;14.02;6.18;;;18.20;99.90;;;;;;5030704;28;20026;-68
2022/09/11 01:04:57;;;;;;;14.77;6.47;;;18.20;99.90;;;;;;5030623;28;20033;-67
2022/09/11 01:07:25;;;;;;;13.55;5.88;;;18.10;99.90;;;;;;5030122;28;20045;-67
2022/09/11 01:09:52;;;;;;;10.10;5.63;;;18.10;99.90;;;;;;5037857;28;20106;-67
2022/09/11 01:12:37;;;;;;;10.18;5.43;;;18.20;99.90;;;;;;5031085;28;20049;-68
2022/09/11 01:15:10;;;;;;;11.52;6.65;;;18.20;99.90;;;;;;5032733;28;20435;-67
2022/09/11 01:17:45;;;;;;;10.80;6.32;;;18.20;99.90;;;;;;5030167;28;20025;-66
2022/09/11 01:20:30;;;;;;;15.13;6.38;;;18.20;99.90;;;;;;5029835;28;20053;-66
2022/09/11 01:23:06;;;;;;;10.80;6.63;;;18.10;99.90;;;;;;5030519;28;20053;-68
2022/09/11 01:26:05;;;;;;;13.75;6.70;;;18.10;99.90;;;;;;5062576;28;20102;-67
2022/09/11 01:28:37;;;;;;;10.48;6.68;;;18.00;99.90;;;;;;5047773;28;20566;-65
2022/09/11 01:31:09;;;;;;;12.30;6.32;;;18.00;99.90;;;;;;5043357;28;20058;-68
2022/09/11 01:33:50;;;;;;;10.82;6.68;;;18.00;99.90;;;;;;5042921;28;20033;-66
2022/09/11 01:36:27;;;;;;;14.77;7.50;;;18.00;99.90;;;;;;5043702;28;20079;-68
2022/09/11 01:39:03;;;;;;;9.98;7.40;;;18.00;99.90;;;;;;5030090;28;20038;-65
2022/09/11 01:41:36;;;;;;;11.82;6.93;;;18.00;99.90;;;;;;5030212;28;20021;-68
2022/09/11 01:44:10;;;;;;;12.45;7.45;;;17.90;99.90;;;;;;5043812;28;20049;-66
2022/09/11 01:46:40;;;;;;;12.75;7.18;;;17.90;99.90;;;;;;5043731;28;20495;-67
2022/09/11 01:49:14;;;;;;;16.55;7.57;;;17.90;99.90;;;;;;5042905;28;20361;-67
2022/09/11 01:51:41;;;;;;;14.98;6.35;;;17.90;99.90;;;;;;5029960;28;20380;-67
2022/09/11 01:54:15;;;;;;;11.05;7.65;;;18.00;99.90;;;;;;5030087;28;20017;-66
2022/09/11 01:56:59;;;;;;;12.48;6.90;;;18.00;99.90;;;;;;5062013;28;20037;-68
2022/09/11 01:59:40;;;;;;;12.95;7.40;;;18.00;99.90;;;;;;5045551;28;20511;-65
2022/09/11 02:02:10;;;;;;;11.07;6.63;;;18.00;99.90;;;;;;5043327;28;20037;-67
2022/09/11 02:04:45;;;;;;;10.27;7.18;;;18.00;99.90;;;;;;5062061;28;20025;-67
2022/09/11 02:07:22;;;;;;;13.18;7.80;;;18.00;99.90;;;;;;5042810;28;20041;-68
2022/09/11 02:10:22;;;;;;;11.88;7.13;;;18.10;99.90;;;;;;5045590;28;20082;-67
2022/09/11 02:13:06;;;;;;;12.95;6.70;;;18.10;99.90;;;;;;5032620;28;20025;-67
2022/09/11 02:15:42;;;;;;;13.00;7.18;;;18.00;99.90;;;;;;5047316;28;20124;-67
2022/09/11 02:18:36;;;;;;;10.95;6.70;;;18.00;99.90;;;;;;5062370;28;20048;-67
2022/09/11 02:21:02;;;;;;;10.23;6.60;;;18.00;99.90;;;;;;5034120;28;20017;-66
2022/09/11 02:23:28;;;;;;;13.32;7.13;;;18.00;99.90;;;;;;5048143;28;20021;-67
2022/09/11 02:25:54;;;;;;;10.65;7.05;;;18.00;99.90;;;;;;5033313;28;20032;-66
2022/09/11 02:28:20;;;;;;;15.80;6.65;;;18.00;99.90;;;;;;5045628;28;20472;-67
2022/09/11 02:30:46;;;;;;;9.98;6.25;;;18.10;99.90;;;;;;5033307;28;20388;-67
2022/09/11 02:33:44;;;;;;;9.45;5.55;;;18.00;99.90;;;;;;5065407;28;20039;-67
2022/09/11 02:36:21;;;;;;;11.18;6.13;;;18.00;99.90;;;;;;5016527;28;20590;-67
2022/09/11 02:39:17;;;;;;;12.10;6.38;;;18.00;99.90;;;;;;5010745;28;20390;-67
2022/09/11 02:42:03;;;;;;;12.63;6.63;;;18.00;99.90;;;;;;5011395;28;20068;-67
2022/09/11 02:44:40;;;;;;;11.43;5.75;;;17.90;99.90;;;;;;5012159;28;20036;-65
2022/09/11 02:47:26;;;;;;;9.68;6.75;;;17.90;99.90;;;;;;5027636;28;20068;-66
2022/09/11 02:50:09;;;;;;;13.15;6.45;;;17.90;99.90;;;;;;5011271;28;20116;-68
2022/09/11 02:52:58;;;;;;;14.02;6.03;;;17.90;99.90;;;;;;5013715;28;20030;-66
2022/09/11 02:55:48;;;;;;;19.52;6.55;;;17.90;99.90;;;;;;5010559;28;20503;-66
2022/09/11 02:58:29;;;;;;;10.43;5.90;;;17.90;99.90;;;;;;5013784;28;20052;-66
2022/09/11 03:01:01;;;;;;;6.38;5.30;;;17.80;99.90;;;;;;5012407;28;20022;-67
2022/09/11 03:03:28;;;;;;;8.40;5.88;;;17.80;99.90;;;;;;5027240;28;20087;-66
2022/09/11 03:05:54;;;;;;;13.00;5.63;;;17.80;99.90;;;;;;5010174;28;20030;-65
2022/09/11 03:08:21;;;;;;;9.35;5.07;;;17.80;99.90;;;;;;5013415;28;20053;-68
2022/09/11 03:10:48;;;;;;;16.85;6.50;;;17.80;99.90;;;;;;5012263;28;20026;-67
2022/09/11 03:13:15;;;;;;;7.95;4.90;;;17.80;99.90;;;;;;5033439;28;20026;-67
2022/09/11 03:15:43;;;;;;;8.98;4.95;;;17.80;99.90;;;;;;5042801;28;20021;-66
2022/09/11 03:18:14;;;;;;;9.85;5.47;;;17.80;99.90;;;;;;5037076;28;20040;-67
2022/09/11 03:20:46;;;;;;;7.13;4.65;;;17.90;99.90;;;;;;5047594;28;20030;-67
2022/09/11 03:23:12;;;;;;;8.20;4.90;;;17.90;99.90;;;;;;5033187;28;20150;-68
2022/09/11 03:25:39;;;;;;;6.60;4.80;;;17.90;99.90;;;;;;5042526;28;20021;-67
2022/09/11 03:28:06;;;;;;;11.43;5.05;;;17.90;99.90;;;;;;5055635;28;20033;-67
2022/09/11 03:30:33;;;;;;;7.25;4.65;;;17.80;99.90;;;;;;5033599;28;20078;-67
2022/09/11 03:32:59;;;;;;;10.13;4.85;;;17.80;99.90;;;;;;5048524;28;20036;-68
2022/09/11 03:35:26;;;;;;;9.48;4.88;;;17.80;99.90;;;;;;5033222;28;20014;-67
2022/09/11 03:37:54;;;;;;;10.27;5.57;;;17.70;99.90;;;;;;5032711;28;20130;-67
2022/09/11 03:40:20;;;;;;;10.13;4.70;;;17.70;99.90;;;;;;5048346;28;20124;-67
2022/09/11 03:42:46;;;;;;;6.88;4.45;;;17.70;99.90;;;;;;5032751;28;20115;-68
2022/09/11 03:45:13;;;;;;;11.40;5.20;;;17.70;99.90;;;;;;5048515;28;20531;-68
2022/09/11 03:47:39;;;;;;;7.63;4.25;;;17.70;99.90;;;;;;5037436;28;20029;-66
2022/09/11 03:50:07;;;;;;;7.85;4.80;;;17.70;99.90;;;;;;5040541;28;20117;-67
2022/09/11 03:52:33;;;;;;;8.88;4.80;;;17.70;99.90;;;;;;5032854;28;20464;-66
2022/09/11 03:54:59;;;;;;;9.88;4.68;;;17.60;99.90;;;;;;5032746;28;20075;-67
2022/09/11 03:57:25;;;;;;;7.60;4.25;;;17.60;99.90;;;;;;5045612;28;20032;-67
2022/09/11 03:59:54;;;;;;;10.88;4.68;;;17.60;99.90;;;;;;5039965;28;20029;-68
2022/09/11 04:02:22;;;;;;;8.15;4.32;;;17.60;99.90;;;;;;5048278;28;20491;-66
2022/09/11 04:04:48;;;;;;;9.05;4.38;;;17.70;99.90;;;;;;5038714;28;20398;-66
2022/09/11 04:07:14;;;;;;;5.13;3.35;;;17.70;99.90;;;;;;5063647;28;20132;-68
2022/09/11 04:09:39;;;;;;;6.45;4.05;;;17.70;99.90;;;;;;5047440;28;20072;-67
2022/09/11 04:12:06;;;;;;;5.28;3.58;;;17.70;99.90;;;;;;5038373;28;20052;-68
2022/09/11 04:14:31;;;;;;;11.77;4.10;;;17.70;99.90;;;;;;5051126;28;20059;-67
2022/09/11 04:16:58;;;;;;;6.80;3.83;;;17.70;99.90;;;;;;5048128;28;20025;-65
2022/09/11 04:19:28;;;;;;;10.82;3.67;;;17.80;99.90;;;;;;5041546;28;20492;-68
2022/09/11 04:21:54;;;;;;;6.65;3.80;;;17.80;99.90;;;;;;5049792;28;20026;-64
2022/09/11 04:24:20;;;;;;;8.23;4.05;;;17.90;99.90;;;;;;5040946;28;20079;-65
2022/09/11 04:26:47;;;;;;;5.90;3.53;;;17.80;99.90;;;;;;5035991;28;20029;-68
2022/09/11 04:29:25;;;;;;;9.80;3.80;;;17.90;99.90;;;;;;5037095;28;20025;-66
2022/09/11 04:31:51;;;;;;;7.00;3.08;;;17.80;99.90;;;;;;5047295;28;20509;-67
2022/09/11 04:34:18;;;;;;;6.15;3.70;;;17.80;99.90;;;;;;5047567;28;20436;-66
2022/09/11 04:36:44;;;;;;;8.60;3.55;;;17.70;99.90;;;;;;5032169;28;20030;-65
2022/09/11 04:39:13;;;;;;;9.13;3.78;;;17.70;99.90;;;;;;5040218;28;20048;-68
2022/09/11 04:41:40;;;;;;;9.18;4.47;;;17.80;99.90;;;;;;5067225;28;20025;-66
2022/09/11 04:44:06;;;;;;;7.80;3.10;;;17.70;99.90;;;;;;5031473;28;20029;-65
2022/09/11 04:46:40;;;;;;;8.48;3.42;;;17.70;99.90;;;;;;5042376;28;20082;-67
2022/09/11 04:49:08;;;;;;;6.65;3.78;;;17.70;99.90;;;;;;5049436;28;20534;-68
2022/09/11 04:51:35;;;;;;;6.15;3.67;;;17.80;99.90;;;;;;5047107;28;20029;-68
2022/09/11 04:54:03;;;;;;;6.78;3.88;;;17.80;99.90;;;;;;5043619;28;20025;-65
2022/09/11 04:56:36;;;;;;;9.90;4.38;;;17.70;99.90;;;;;;5031304;28;20487;-68
2022/09/11 04:59:29;;;;;;;7.05;4.10;;;17.80;99.90;;;;;;5047088;28;20041;-68
2022/09/11 05:02:05;;;;;;;6.35;3.75;;;17.80;99.90;;;;;;5050444;28;20021;-68
2022/09/11 05:04:33;;;;;;;11.20;4.13;;;17.80;99.90;;;;;;5054635;28;20480;-65
2022/09/11 05:07:01;;;;;;;11.82;4.28;;;18.00;99.90;;;;;;5047124;28;20067;-65
2022/09/11 05:09:27;;;;;;;6.43;3.35;;;18.00;99.90;;;;;;5062447;28;20068;-65
2022/09/11 05:11:55;;;;;;;8.85;3.75;;;18.10;99.90;;;;;;5052948;28;20029;-64
2022/09/11 05:14:24;;;;;;;6.38;3.55;;;18.10;99.90;;;;;;5047288;28;20025;-67
2022/09/11 05:16:51;;;;;;;5.50;3.22;;;18.10;99.90;;;;;;5048261;28;20104;-68
2022/09/11 05:19:21;;;;;;;4.78;3.28;;;18.10;99.90;;;;;;5048272;28;20685;-67
2022/09/11 05:21:47;;;;;;;9.30;3.67;;;18.20;99.90;;;;;;5037295;28;20022;-68
2022/09/11 05:24:13;;;;;;;6.85;3.72;;;18.40;99.90;;;;;;5036198;28;20026;-65
2022/09/11 05:26:40;;;;;;;6.15;3.83;;;18.40;99.90;;;;;;5030202;28;20018;-67
2022/09/11 05:29:12;;;;;;;10.32;3.88;;;18.30;99.90;;;;;;5050007;28;20082;-66
2022/09/11 05:31:44;;;;;;;7.60;4.10;;;18.10;99.90;;;;;;5039410;28;20026;-65
2022/09/11 05:34:13;;;;;;;7.97;3.40;;;18.00;99.90;;;;;;5049230;28;20478;-66
2022/09/11 05:36:40;;;;;;;7.28;3.92;;;17.90;99.90;;;;;;5049942;28;20511;-65
2022/09/11 05:39:06;;;;;;;7.63;4.38;;;17.90;99.90;;;;;;5036804;28;20041;-67
2022/09/11 05:41:33;;;;;;;7.97;3.28;;;17.90;99.90;;;;;;5054998;28;20056;-66
2022/09/11 05:43:59;;;;;;;7.72;3.72;;;17.90;99.90;;;;;;5048257;28;20111;-68
2022/09/11 05:46:25;;;;;;;6.78;3.67;;;18.00;99.90;;;;;;5057070;28;20379;-68
2022/09/11 05:48:55;;;;;;;7.47;3.92;;;18.00;99.90;;;;;;5044264;28;20025;-67
2022/09/11 05:51:21;;;;;;;8.73;4.00;;;18.20;99.90;;;;;;5031466;28;20040;-67
2022/09/11 05:53:53;;;;;;;6.82;3.72;;;18.20;99.90;;;;;;5041523;28;20072;-67
2022/09/11 05:56:22;;;;;;;7.75;3.17;;;18.40;99.90;;;;;;5030316;28;20546;-67
2022/09/11 05:58:53;;;;;;;10.15;4.30;;;18.40;99.90;;;;;;5050478;28;20586;-65
2022/09/11 06:01:26;;;;;;;5.88;3.47;;;18.40;99.90;;;;;;5049230;28;20030;-64
2022/09/11 06:04:01;;;;;;;6.80;3.17;;;18.40;99.90;;;;;;5046733;28;20483;-66
2022/09/11 06:06:29;;;;;;;8.07;3.42;;;18.50;99.90;;;;;;5053119;28;20550;-67
2022/09/11 06:08:55;;;;;;;5.85;3.60;;;18.70;99.90;;;;;;5051464;28;20044;-67
2022/09/11 06:11:21;;;;;;;9.30;3.85;;;18.80;99.90;;;;;;5037315;28;20035;-68
2022/09/11 06:13:48;;;;;;;4.75;2.97;;;18.90;99.90;;;;;;5065751;28;20021;-65
2022/09/11 06:16:21;;;;;;;6.88;3.67;;;19.00;99.90;;;;;;5040499;28;20036;-68
2022/09/11 06:18:49;;;;;;;6.70;3.60;;;19.30;99.90;;;;;;5052833;28;20078;-68
2022/09/11 06:21:21;;;;;;;7.63;3.30;;;19.60;99.90;;;;;;5068357;28;20052;-67
2022/09/11 06:23:57;;;;;;;6.68;3.15;;;20.00;99.90;;;;;;5033270;28;20040;-68
2022/09/11 06:26:25;;;;;;;5.93;3.20;;;20.20;99.90;;;;;;5049766;28;20025;-67
2022/09/11 06:28:53;;;;;;;8.85;2.97;;;20.20;99.90;;;;;;5062562;28;20072;-67
2022/09/11 06:31:23;;;;;;;5.38;3.20;;;20.20;99.90;;;;;;5046150;28;20021;-66
2022/09/11 06:33:50;;;;;;;7.80;3.40;;;20.40;99.90;;;;;;5052698;28;20035;-67
2022/09/11 06:36:18;;;;;;;3.92;2.67;;;20.30;99.90;;;;;;5052825;28;20025;-67
2022/09/11 06:38:45;;;;;;;5.95;2.83;;;20.40;99.90;;;;;;5049427;28;20400;-68
2022/09/11 06:41:15;;;;;;;6.97;2.83;;;20.50;99.90;;;;;;5044316;28;20025;-68
2022/09/11 06:43:43;;;;;;;5.20;2.40;;;20.60;99.90;;;;;;5051737;28;20120;-67
2022/09/11 06:46:16;;;;;;;7.43;2.95;;;20.70;99.90;;;;;;5042984;28;20025;-67
2022/09/11 06:48:43;;;;;;;6.00;2.53;;;20.70;99.90;;;;;;5058462;28;20044;-68
2022/09/11 06:51:11;;;;;;;7.88;3.00;;;20.80;99.90;;;;;;5052836;28;20025;-67
2022/09/11 06:53:39;;;;;;;7.43;3.03;;;20.80;99.90;;;;;;5035329;28;20105;-67
2022/09/11 06:56:11;;;;;;;5.60;2.97;;;20.70;99.90;;;;;;5033815;28;20056;-69
2022/09/11 06:58:39;;;;;;;5.90;2.88;;;20.70;99.90;;;;;;5066680;28;20129;-68
2022/09/11 07:01:11;;;;;;;7.22;3.38;;;20.60;99.90;;;;;;5042798;28;20545;-67
2022/09/11 07:03:45;;;;;;;4.22;2.50;;;20.70;99.90;;;;;;5046382;28;20124;-65
2022/09/11 07:06:13;;;;;;;4.90;3.20;;;20.50;99.90;;;;;;5057623;28;20458;-68
2022/09/11 07:08:41;;;;;;;5.25;3.30;;;20.40;99.90;;;;;;5038651;28;20044;-67
2022/09/11 07:11:10;;;;;;;10.50;3.00;;;20.20;99.90;;;;;;5033486;28;20026;-68
2022/09/11 07:13:37;;;;;;;3.72;2.53;;;20.20;99.90;;;;;;5043543;28;20025;-68
2022/09/11 07:16:07;;;;;;;5.88;2.97;;;20.30;99.90;;;;;;5046769;28;20018;-67
2022/09/11 07:18:37;;;;;;;5.68;3.40;;;20.10;99.90;;;;;;5047594;28;20090;-66
2022/09/11 07:21:10;;;;;;;5.68;3.00;;;20.00;99.90;;;;;;5052018;28;20022;-67
2022/09/11 07:23:39;;;;;;;6.60;3.22;;;19.90;99.90;;;;;;5049802;28;20021;-66
2022/09/11 07:26:09;;;;;;;5.47;3.75;;;19.80;99.90;;;;;;5047713;28;20022;-64
2022/09/11 07:28:36;;;;;;;6.43;3.17;;;19.90;99.90;;;;;;5048597;28;20021;-64
2022/09/11 07:31:09;;;;;;;6.53;2.90;;;19.90;99.90;;;;;;5040209;28;20032;-68
2022/09/11 07:33:41;;;;;;;8.25;3.97;;;20.10;99.90;;;;;;5046628;28;20429;-65
2022/09/11 07:36:12;;;;;;;9.55;3.88;;;19.80;99.90;;;;;;5053345;28;20025;-64
2022/09/11 07:38:42;;;;;;;7.50;3.65;;;19.90;99.90;;;;;;5045941;28;20576;-66
2022/09/11 07:41:12;;;;;;;8.23;4.13;;;19.80;99.90;;;;;;5048441;28;20030;-67
2022/09/11 07:43:40;;;;;;;5.80;4.03;;;19.90;99.90;;;;;;5040948;28;20105;-65
2022/09/11 07:46:09;;;;;;;10.38;4.15;;;19.90;99.90;;;;;;5048639;28;20087;-68
2022/09/11 07:48:35;;;;;;;7.88;4.38;;;19.90;99.90;;;;;;5039402;28;20029;-68
2022/09/11 07:51:04;;;;;;;5.60;3.88;;;20.00;99.90;;;;;;5051228;28;20632;-67
2022/09/11 07:53:36;;;;;;;8.02;3.72;;;19.90;99.90;;;;;;5031323;28;20037;-68
2022/09/11 07:56:04;;;;;;;6.35;3.15;;;19.90;99.90;;;;;;5044278;28;20053;-68
2022/09/11 07:58:32;;;;;;;5.60;3.15;;;19.80;99.90;;;;;;5047563;28;20083;-68
2022/09/11 08:00:59;;;;;;;6.38;2.60;;;19.70;99.90;;;;;;5042826;28;20119;-68
2022/09/11 08:03:25;;;;;;;5.18;2.67;;;19.80;99.90;;;;;;5033293;28;20018;-67
2022/09/11 08:05:58;;;;;;;5.70;3.08;;;19.80;99.90;;;;;;5040993;28;20128;-68
2022/09/11 08:08:27;;;;;;;3.00;2.10;;;19.70;99.90;;;;;;5049150;28;20045;-68
2022/09/11 08:10:55;;;;;;;14.93;5.15;;;19.70;99.90;;;;;;5063060;28;20785;-66
2022/09/11 08:13:22;;;;;;;13.63;4.68;;;19.60;99.90;;;;;;5045256;28;20029;-68
2022/09/11 08:15:49;;;;;;;13.73;3.92;;;19.70;99.90;;;;;;5033101;28;20025;-68
2022/09/11 08:18:17;;;;;;;18.80;6.75;;;19.60;99.90;;;;;;5046829;28;20622;-69
2022/09/11 08:20:43;;;;;;;4.72;2.55;;;19.50;99.90;;;;;;5048806;28;20120;-69
2022/09/11 08:23:10;;;;;;;8.75;2.47;;;19.60;99.90;;;;;;5053153;28;20155;-67
2022/09/11 08:25:38;;;;;;;31.15;7.82;;;19.50;99.90;;;;;;5047416;28;20026;-70
2022/09/11 08:28:05;;;;;;;10.73;2.58;;;19.40;99.90;;;;;;5059952;28;20029;-69
2022/09/11 08:30:32;;;;;;;1.92;1.58;;;19.20;99.90;;;;;;5039021;28;20104;-67
2022/09/11 08:32:58;;;;;;;4.70;1.85;;;19.20;99.90;;;;;;5039264;28;20030;-64
2022/09/11 08:35:26;;;;;;;4.63;1.55;;;19.20;99.90;;;;;;5051324;28;20053;-69
2022/09/11 08:37:54;;;;;;;4.15;1.48;;;19.10;99.90;;;;;;5032304;28;20042;-68
2022/09/11 08:40:20;;;;;;;5.38;1.95;;;19.00;99.90;;;;;;5045291;28;20025;-66
2022/09/11 08:42:47;;;;;;;5.72;1.73;;;19.00;99.90;;;;;;5048845;28;20057;-68
2022/09/11 08:45:19;;;;;;;3.65;1.90;;;18.80;99.90;;;;;;5044130;28;20029;-68
2022/09/11 08:47:53;;;;;;;2.50;1.55;;;18.80;99.90;;;;;;5049933;28;20055;-65
2022/09/11 08:50:32;;;;;;;5.63;2.85;;;18.80;99.90;;;;;;5053821;28;20040;-69
2022/09/11 08:53:01;;;;;;;7.78;3.83;;;18.80;99.90;;;;;;5050261;28;20071;-65
2022/09/11 08:55:43;;;;;;;9.43;5.60;;;18.50;99.90;;;;;;5050111;28;20028;-69
2022/09/11 08:58:34;;;;;;;9.50;5.35;;;18.60;99.90;;;;;;5050804;28;20115;-69
2022/09/11 09:01:13;;;;;;;6.47;3.58;;;18.30;99.90;;;;;;5049942;28;20381;-69
2022/09/11 09:04:02;;;;;;;8.27;2.30;;;18.20;99.90;;;;;;5047156;28;20477;-68
2022/09/11 09:06:58;;;;;;;21.08;4.68;;;18.30;99.90;;;;;;5039593;28;20064;-69
2022/09/11 09:09:42;;;;;;;49.72;9.88;;;18.30;99.90;;;;;;5036039;28;20044;-67
2022/09/11 09:12:22;;;;;;;38.92;8.32;;;18.10;99.90;;;;;;5059106;28;20097;-69
2022/09/11 09:15:23;;;;;;;52.63;9.90;;;18.10;99.90;;;;;;5036513;28;20108;-70
2022/09/11 09:18:29;;;;;;;57.55;7.45;;;18.10;99.90;;;;;;5030318;28;20030;-64
2022/09/11 09:21:05;;;;;;;29.45;7.25;;;18.00;99.90;;;;;;5045823;28;20624;-69
2022/09/11 09:23:40;;;;;;;71.55;11.43;;;17.90;99.90;;;;;;5064230;28;20029;-68
2022/09/11 09:26:16;;;;;;;59.70;8.63;;;17.80;99.90;;;;;;5049640;28;20490;-70
2022/09/11 09:28:45;;;;;;;25.05;5.10;;;17.80;99.90;;;;;;5042785;28;20027;-68
2022/09/11 09:31:18;;;;;;;62.90;14.23;;;18.00;99.90;;;;;;5052984;28;20029;-67
2022/09/11 09:33:50;;;;;;;82.65;18.90;;;18.00;99.90;;;;;;5034029;28;20021;-69
2022/09/11 09:36:33;;;;;;;25.65;5.88;;;18.10;99.90;;;;;;5048013;28;20032;-63
2022/09/11 09:39:01;;;;;;;9.82;6.10;;;18.10;99.90;;;;;;5041427;28;20045;-69
2022/09/11 09:41:39;;;;;;;8.27;5.07;;;18.20;99.90;;;;;;5049337;28;20208;-68
2022/09/11 09:44:42;;;;;;;5.40;3.05;;;18.10;99.90;;;;;;5044189;28;20033;-68
2022/09/11 09:47:13;;;;;;;4.50;2.42;;;18.20;99.90;;;;;;5045079;28;20431;-65
2022/09/11 09:49:40;;;;;;;4.28;2.20;;;18.30;99.90;;;;;;5051121;28;20533;-68
2022/09/11 09:52:19;;;;;;;6.78;2.95;;;18.40;99.90;;;;;;5054929;28;20475;-69
2022/09/11 09:55:01;;;;;;;5.65;2.92;;;18.50;99.90;;;;;;5040730;28;20036;-68
2022/09/11 09:57:35;;;;;;;5.35;2.72;;;18.50;99.90;;;;;;5043854;28;20025;-68
2022/09/11 10:00:13;;;;;;;4.82;2.90;;;18.60;99.90;;;;;;5035616;28;20030;-68
2022/09/11 10:02:42;;;;;;;6.70;2.90;;;18.70;99.90;;;;;;5050194;28;20033;-66
2022/09/11 10:05:19;;;;;;;4.93;2.95;;;18.70;99.90;;;;;;5041944;28;20028;-67
2022/09/11 10:08:06;;;;;;;8.40;3.20;;;18.70;99.90;;;;;;5041278;28;20046;-65
2022/09/11 10:10:39;;;;;;;7.03;3.55;;;18.90;99.90;;;;;;5033127;28;20138;-66
2022/09/11 10:13:24;;;;;;;5.55;3.13;;;18.90;99.90;;;;;;5046787;28;20129;-67
2022/09/11 10:15:52;;;;;;;7.45;3.33;;;18.80;99.90;;;;;;5051819;28;20033;-68
2022/09/11 10:18:32;;;;;;;8.38;3.58;;;18.80;99.90;;;;;;5039554;28;20394;-67
2022/09/11 10:21:15;;;;;;;6.43;2.95;;;18.80;99.90;;;;;;5035091;28;20494;-67
2022/09/11 10:23:49;;;;;;;4.20;2.60;;;18.90;99.90;;;;;;5039736;28;20040;-68
2022/09/11 10:26:17;;;;;;;3.88;3.05;;;19.00;99.90;;;;;;5033488;28;20029;-68
2022/09/11 10:28:45;;;;;;;5.78;2.85;;;19.10;99.90;;;;;;5033560;28;20036;-67
2022/09/11 10:31:15;;;;;;;4.80;2.30;;;19.20;99.90;;;;;;5039547;28;20033;-66
2022/09/11 10:33:50;;;;;;;5.07;2.88;;;19.20;99.90;;;;;;5039265;28;20079;-68
2022/09/11 10:36:22;;;;;;;3.65;2.25;;;19.30;99.90;;;;;;5041482;28;20033;-69
2022/09/11 10:38:49;;;;;;;3.35;1.95;;;19.30;99.90;;;;;;5047850;28;20464;-68
2022/09/11 10:41:18;;;;;;;2.08;1.63;;;19.50;99.90;;;;;;5035011;28;20057;-66
2022/09/11 10:43:55;;;;;;;6.45;3.60;;;19.60;99.90;;;;;;5034569;28;20068;-67
2022/09/11 10:46:36;;;;;;;4.40;2.15;;;19.60;99.90;;;;;;5035028;28;20036;-67
2022/09/11 10:49:02;;;;;;;4.40;1.80;;;19.80;99.90;;;;;;5045767;28;20078;-66
2022/09/11 10:51:30;;;;;;;3.33;2.17;;;20.00;99.90;;;;;;5035524;28;20022;-69
2022/09/11 10:54:32;;;;;;;3.42;1.60;;;20.20;99.90;;;;;;5034667;28;20022;-67
2022/09/11 10:57:10;;;;;;;2.80;1.70;;;20.50;99.90;;;;;;5024476;28;20392;-68
2022/09/11 11:00:09;;;;;;;2.47;1.67;;;20.50;99.90;;;;;;5032250;28;20381;-66
2022/09/11 11:02:43;;;;;;;3.58;1.70;;;20.40;99.90;;;;;;5032325;28;20135;-65
2022/09/11 11:05:20;;;;;;;3.80;2.00;;;20.40;99.90;;;;;;5032341;28;20450;-68
2022/09/11 11:08:23;;;;;;;3.75;1.98;;;20.30;99.90;;;;;;5031673;28;20170;-68
2022/09/11 11:11:11;;;;;;;2.83;1.60;;;20.30;99.90;;;;;;5031578;28;20164;-66
2022/09/11 11:13:59;;;;;;;3.58;1.73;;;20.30;99.90;;;;;;5025485;28;20125;-68
2022/09/11 11:16:38;;;;;;;2.08;1.58;;;20.50;99.90;;;;;;5021253;28;20183;-64
2022/09/11 11:19:31;;;;;;;5.85;1.50;;;20.30;99.90;;;;;;5028417;28;20038;-68
2022/09/11 11:22:21;;;;;;;2.40;1.27;;;20.50;99.90;;;;;;5031292;28;20037;-67
2022/09/11 11:25:17;;;;;;;1.17;0.98;;;20.60;99.90;;;;;;5031699;28;20037;-67
2022/09/11 11:27:51;;;;;;;5.22;1.60;;;20.60;99.90;;;;;;5031431;28;20079;-66
2022/09/11 11:30:24;;;;;;;1.77;1.40;;;20.70;99.90;;;;;;5031496;28;20039;-68
2022/09/11 11:32:50;;;;;;;3.38;1.30;;;20.60;99.90;;;;;;5034029;28;20021;-67
2022/09/11 11:35:20;;;;;;;5.00;1.50;;;20.60;99.90;;;;;;5038219;28;20018;-67
2022/09/11 11:37:49;;;;;;;3.25;1.63;;;20.80;99.90;;;;;;5033592;28;20384;-68
2022/09/11 11:40:26;;;;;;;3.33;1.88;;;20.80;99.90;;;;;;5033273;28;20038;-68
2022/09/11 11:43:02;;;;;;;3.58;1.60;;;20.90;99.90;;;;;;5040963;28;20033;-68
2022/09/11 11:45:46;;;;;;;2.92;1.45;;;21.10;99.90;;;;;;5037741;28;20025;-68
2022/09/11 11:48:22;;;;;;;4.10;1.80;;;21.20;99.90;;;;;;5033196;28;20044;-68
2022/09/11 11:50:51;;;;;;;3.10;1.42;;;21.30;99.90;;;;;;5033022;28;20474;-69
2022/09/11 11:53:39;;;;;;;4.15;1.50;;;21.40;99.90;;;;;;5044282;28;20107;-68
2022/09/11 11:56:21;;;;;;;2.97;1.63;;;21.40;99.90;;;;;;5033131;28;20017;-68
2022/09/11 11:59:06;;;;;;;1.92;1.40;;;21.10;99.90;;;;;;5032850;28;20044;-67
2022/09/11 12:01:37;;;;;;;2.90;1.60;;;21.10;99.90;;;;;;5032903;28;20021;-69
2022/09/11 12:04:08;;;;;;;3.55;1.35;;;21.20;99.90;;;;;;5032916;28;20026;-68
2022/09/11 12:06:34;;;;;;;2.05;1.30;;;21.30;99.90;;;;;;5036179;28;20037;-68
2022/09/11 12:09:03;;;;;;;1.27;0.93;;;21.50;99.90;;;;;;5043104;28;20044;-68
2022/09/11 12:11:31;;;;;;;3.92;1.50;;;21.60;99.90;;;;;;5031581;28;20026;-69
2022/09/11 12:14:00;;;;;;;1.30;1.17;;;;;;;;;;5032471;28;20021;-68
2022/09/11 12:16:34;;;;;;;2.95;1.20;;;21.70;99.90;;;;;;5032778;28;20083;-68
2022/09/11 12:19:13;;;;;;;2.28;1.45;;;21.90;99.90;;;;;;5032157;28;20037;-68
2022/09/11 12:21:52;;;;;;;2.08;1.60;;;22.00;99.90;;;;;;5032171;28;20065;-68
2022/09/11 12:24:43;;;;;;;1.15;1.05;;;22.00;99.90;;;;;;5032537;28;20064;-69
2022/09/11 12:27:33;;;;;;;3.10;1.15;;;22.00;99.90;;;;;;5032007;28;20079;-69
2022/09/11 12:30:21;;;;;;;3.55;1.38;;;22.00;99.90;;;;;;5032139;28;20033;-69
2022/09/11 12:32:48;;;;;;;1.38;1.10;;;22.10;99.90;;;;;;5033865;28;20498;-65
2022/09/11 12:35:22;;;;;;;1.52;1.38;;;22.20;99.90;;;;;;5052176;28;20037;-69
2022/09/11 12:38:23;;;;;;;3.05;1.50;;;22.40;99.90;;;;;;5049572;28;20033;-65
2022/09/11 12:41:09;;;;;;;2.25;1.55;;;26.40;99.90;;;;;;5009939;28;20050;-68
2022/09/11 12:43:35;;;;;;;2.65;1.27;;;22.10;99.90;;;;;;5009663;28;20022;-67
2022/09/11 12:46:28;;;;;;;5.03;1.13;;;22.20;99.90;;;;;;5009734;28;20580;-67
2022/09/11 12:49:22;;;;;;;1.67;0.70;;;22.30;99.90;;;;;;4951329;29;20039;-68
2022/09/11 12:52:00;;;;;;;3.35;1.00;;;22.30;99.90;;;;;;4949229;29;20070;-67
2022/09/11 12:54:46;;;;;;;0.47;0.43;;;22.40;99.90;;;;;;4951549;29;20043;-68
2022/09/11 12:57:21;;;;;;;1.80;1.00;;;22.50;99.90;;;;;;4950749;29;20039;-68
2022/09/11 12:59:54;;;;;;;1.90;1.00;;;22.50;99.90;;;;;;4950719;29;20525;-67
2022/09/11 13:02:23;;;;;;;0.65;0.65;;;22.60;99.90;;;;;;4951217;29;20030;-64
2022/09/11 13:04:51;;;;;;;1.75;0.60;;;22.60;99.90;;;;;;4950262;28;20031;-68
2022/09/11 13:07:41;;;;;;;1.35;1.00;;;22.60;99.90;;;;;;4947345;28;20407;-68
2022/09/11 13:10:27;;;;;;;0.88;0.70;;;22.60;99.90;;;;;;4949775;29;20027;-65
2022/09/11 13:13:01;;;;;;;0.90;0.68;;;22.60;99.90;;;;;;4949786;29;20126;-68